Clarksville, New York
Current Conditions -  °F | °C
As of 10:51 AM on Saturday 27 Dec 2014 (Local Time) from KALB Reporting Station
Overcast Overcast  
Wind Chill: 38°   Ceiling: 3500
Heat Index: 38°   Visibility: 10mi
Dew Point: 30°   Wind: 3mph
Humidity: 73%   Direction: 170°S
Pressure: 30.23"   Gusts: NA
Location:  42.58°N, 73.96°W
Report Text: KALB 271551Z 17003KT 10SM OVC035 03/M01 A3023 RMK AO2 SLP241 OVC V BKN T00331011
Loading
Personal Weather Stations






























Interactive Weather Map New forecast layout! Learn more

10-Day Weather Forecast

Advertisements
Track Severe Weather on mobile